Time;durP1;ratioP1;P1;durP2;ratioP2;P2;SDS_P1;SDS_P2;PMS_P1;PMS_P2;Temp;Humidity;BMP_temperature;BMP_pressure;BME280_temperature;BME280_humidity;BME280_pressure;Samples;Min_cycle;Max_cycle;Signal;HPM_P1;HPM_P2
2021/12/03 00:00:39;;;;;;;;;9.50;8.00;;;;;8.79;55.16;101111.16;5021593;28;45452;-65
2021/12/03 00:03:06;;;;;;;;;12.00;9.00;;;;;8.80;55.23;101117.34;5021871;28;45794;-65
2021/12/03 00:05:32;;;;;;;;;9.25;7.75;;;;;8.82;55.23;101112.84;5021505;28;45441;-65
2021/12/03 00:07:57;;;;;;;;;8.00;8.00;;;;;8.81;55.17;101108.47;5021417;28;47169;-65
2021/12/03 00:10:25;;;;;;;;;8.25;8.25;;;;;8.80;55.01;101101.38;5021654;28;45409;-65
2021/12/03 00:12:52;;;;;;;;;9.75;7.50;;;;;8.77;54.90;101089.00;5019019;28;45237;-65
2021/12/03 00:15:19;;;;;;;;;6.75;6.75;;;;;8.79;55.53;101108.47;5020917;28;46566;-65
2021/12/03 00:17:45;;;;;;;;;7.00;6.50;;;;;8.78;55.29;101109.38;5008475;28;46132;-65
2021/12/03 00:20:14;;;;;;;;;8.00;6.00;;;;;8.76;55.24;101105.88;5021454;28;45360;-65
2021/12/03 00:22:41;;;;;;;;;7.50;6.50;;;;;8.78;54.76;101112.03;5021248;28;45335;-65
2021/12/03 00:25:07;;;;;;;;;7.25;7.00;;;;;8.75;55.10;101112.09;5021023;28;45450;-64
2021/12/03 00:27:32;;;;;;;;;9.25;7.25;;;;;8.72;54.93;101109.50;5021315;28;46289;-65
2021/12/03 00:29:58;;;;;;;;;9.00;7.25;;;;;8.73;55.31;101107.72;5021119;28;45403;-65
2021/12/03 00:32:24;;;;;;;;;9.75;8.75;;;;;8.74;55.01;101104.13;5020420;28;45452;-65
2021/12/03 00:34:49;;;;;;;;;8.00;7.00;;;;;8.74;55.14;101106.78;5021062;28;45430;-65
2021/12/03 00:37:15;;;;;;;;;6.00;5.75;;;;;8.73;54.96;101105.94;5021348;28;45347;-65
2021/12/03 00:39:41;;;;;;;;;6.00;6.00;;;;;8.73;55.30;101097.06;5021089;28;45509;-65
2021/12/03 00:42:07;;;;;;;;;8.25;8.25;;;;;8.73;55.46;101108.59;5021221;28;45479;-65
2021/12/03 00:44:32;;;;;;;;;6.50;6.50;;;;;8.68;55.28;101092.69;5020391;28;45415;-64
2021/12/03 00:46:59;;;;;;;;;10.00;8.00;;;;;8.73;55.19;101103.25;5017952;28;45362;-65
2021/12/03 00:49:24;;;;;;;;;8.75;6.75;;;;;8.72;55.40;101114.84;5021155;28;45306;-65
2021/12/03 00:51:50;;;;;;;;;6.00;6.00;;;;;8.68;55.55;101105.13;5021073;28;45184;-65
2021/12/03 00:54:16;;;;;;;;;7.75;7.00;;;;;8.73;55.41;101118.38;5020840;28;45315;-65
2021/12/03 00:56:42;;;;;;;;;7.25;5.50;;;;;8.73;55.23;101121.91;5020811;28;45966;-65
2021/12/03 00:59:08;;;;;;;;;6.00;6.00;;;;;8.68;55.33;101110.47;5020756;28;45228;-65
2021/12/03 01:01:33;;;;;;;;;6.50;6.50;;;;;8.70;55.31;101127.28;5020429;28;45485;-65
2021/12/03 01:03:58;;;;;;;;;10.25;8.00;;;;;8.72;54.96;101130.81;5020857;28;45300;-65
2021/12/03 01:06:24;;;;;;;;;7.25;7.25;;;;;8.70;55.34;101128.16;5020283;28;45199;-64
2021/12/03 01:08:50;;;;;;;;;7.00;7.00;;;;;8.69;55.52;101137.06;5020717;28;45486;-65
2021/12/03 01:11:15;;;;;;;;;7.75;6.00;;;;;8.67;55.13;101137.97;5020758;28;45319;-65
2021/12/03 01:13:42;;;;;;;;;8.25;6.25;;;;;8.69;55.47;101131.72;5017945;28;45287;-65
2021/12/03 01:16:10;;;;;;;;;6.75;6.75;;;;;8.69;55.15;101130.84;5019801;28;46292;-64
2021/12/03 01:18:36;;;;;;;;;7.50;6.50;;;;;8.70;55.34;101146.81;5020469;28;45642;-64
2021/12/03 01:21:03;;;;;;;;;12.50;9.25;;;;;8.70;55.30;101138.81;5020481;28;45179;-65
2021/12/03 01:23:28;;;;;;;;;9.00;9.00;;;;;8.66;55.29;101142.41;5020613;28;46726;-65
2021/12/03 01:25:54;;;;;;;;;10.75;10.50;;;;;8.70;55.42;101148.56;5020031;28;46171;-65
2021/12/03 01:28:20;;;;;;;;;9.50;7.50;;;;;8.68;55.13;101153.03;5020406;28;45363;-65
2021/12/03 01:30:45;;;;;;;;;9.00;9.00;;;;;8.68;55.29;101153.91;5020316;28;45370;-65
2021/12/03 01:33:11;;;;;;;;;13.75;8.50;;;;;8.63;55.63;101152.25;5020443;28;45389;-65
2021/12/03 01:35:37;;;;;;;;;11.00;8.75;;;;;8.68;55.25;101153.03;5019835;28;46312;-65
2021/12/03 01:38:04;;;;;;;;;10.50;10.00;;;;;8.68;55.43;101150.38;5020171;28;45394;-65
2021/12/03 01:40:31;;;;;;;;;10.25;10.00;;;;;8.69;55.32;101158.34;5020248;28;45419;-65
2021/12/03 01:42:57;;;;;;;;;11.00;11.00;;;;;8.69;55.54;101152.16;5020265;28;45448;-65
2021/12/03 01:45:29;;;;;;;;;12.25;12.25;;;;;8.66;55.29;101145.09;5019338;28;46203;-64
2021/12/03 01:47:55;;;;;;;;;10.50;10.50;;;;;8.66;55.13;101146.88;5017386;28;45276;-64
2021/12/03 01:50:27;;;;;;;;;12.00;10.50;;;;;8.63;55.27;101154.91;5020218;28;45180;-65
2021/12/03 01:52:53;;;;;;;;;13.00;13.00;;;;;8.62;55.47;101167.34;5019912;28;45469;-65
2021/12/03 01:55:18;;;;;;;;;12.75;10.00;;;;;8.58;55.64;101165.63;5019583;28;46349;-65
2021/12/03 01:57:44;;;;;;;;;13.50;13.25;;;;;8.53;55.22;101159.50;5019914;28;45381;-65
2021/12/03 02:00:19;;;;;;;;;15.00;13.50;;;;;8.50;55.35;101168.44;5035214;28;45268;-64
2021/12/03 02:02:45;;;;;;;;;12.25;11.25;;;;;8.49;55.43;101173.78;5019839;28;45248;-65
2021/12/03 02:05:10;;;;;;;;;12.50;11.00;;;;;8.47;55.30;101172.91;5019684;28;46411;-65
2021/12/03 02:07:36;;;;;;;;;13.00;13.00;;;;;8.42;55.38;101166.75;5019777;28;45414;-65
2021/12/03 02:10:02;;;;;;;;;14.00;12.00;;;;;8.35;55.22;101166.88;5019738;28;45272;-65
2021/12/03 02:12:27;;;;;;;;;12.75;10.25;;;;;8.28;55.51;101173.19;5017486;28;45302;-65
2021/12/03 02:14:53;;;;;;;;;13.25;12.00;;;;;8.29;55.55;101179.41;5017870;28;45287;-64
2021/12/03 02:17:18;;;;;;;;;13.75;12.00;;;;;8.27;55.70;101175.84;5019300;28;45296;-65
2021/12/03 02:19:43;;;;;;;;;14.75;13.25;;;;;8.25;55.74;101172.34;5019950;28;45521;-65
2021/12/03 02:22:09;;;;;;;;;13.25;11.50;;;;;8.25;55.71;101161.72;5019617;28;45294;-64
2021/12/03 02:24:34;;;;;;;;;13.00;12.00;;;;;8.27;55.52;101173.19;5019435;28;45311;-65
2021/12/03 02:27:00;;;;;;;;;13.75;13.75;;;;;8.25;55.76;101167.03;5019320;28;45378;-65
2021/12/03 02:29:26;;;;;;;;;15.50;14.25;;;;;8.28;56.06;101174.97;5019524;28;45477;-65
2021/12/03 02:31:53;;;;;;;;;15.25;13.25;;;;;8.26;55.48;101164.34;5019522;28;45390;-65
2021/12/03 02:34:18;;;;;;;;;13.25;11.75;;;;;8.28;55.79;101159.88;5019197;28;46311;-65
2021/12/03 02:36:43;;;;;;;;;10.50;9.75;;;;;8.28;55.61;101164.34;5019407;28;45310;-65
2021/12/03 02:39:09;;;;;;;;;18.25;12.75;;;;;8.30;55.61;101163.41;5019185;28;45447;-64
2021/12/03 02:41:34;;;;;;;;;15.75;12.25;;;;;8.27;55.51;101174.09;5019300;28;45375;-64
2021/12/03 02:44:00;;;;;;;;;18.50;17.25;;;;;8.26;55.63;101168.81;5018944;28;45345;-65
2021/12/03 02:46:25;;;;;;;;;17.25;14.00;;;;;8.23;55.60;101164.41;5017538;28;45373;-65
2021/12/03 02:48:50;;;;;;;;;15.50;14.00;;;;;8.15;55.88;101171.63;5019474;28;45339;-65
2021/12/03 02:51:16;;;;;;;;;17.50;13.00;;;;;8.12;55.53;101163.72;5019381;28;45358;-64
2021/12/03 02:53:41;;;;;;;;;13.50;13.50;;;;;8.12;55.88;101161.06;5018764;28;45446;-65
2021/12/03 02:56:07;;;;;;;;;15.25;14.50;;;;;8.11;56.05;101159.28;5019249;28;45219;-65
2021/12/03 02:58:34;;;;;;;;;13.25;11.00;;;;;8.08;55.89;101149.56;5019481;28;45315;-65
2021/12/03 03:01:02;;;;;;;;;14.25;13.25;;;;;7.90;55.80;101133.91;5018924;28;45334;-65
2021/12/03 03:03:28;;;;;;;;;15.50;13.75;;;;;7.94;56.15;101140.94;5018960;28;45373;-65
2021/12/03 03:05:55;;;;;;;;;16.00;14.00;;;;;7.91;56.54;101133.88;5019143;28;45377;-65
2021/12/03 03:08:21;;;;;;;;;17.25;13.75;;;;;7.91;56.10;101133.00;5018968;28;45430;-64
2021/12/03 03:10:47;;;;;;;;;16.50;14.00;;;;;7.88;56.20;101125.06;5018533;28;45315;-65
2021/12/03 03:13:12;;;;;;;;;16.25;14.00;;;;;7.77;56.33;101123.47;5018530;28;45539;-65
2021/12/03 03:15:39;;;;;;;;;7.75;4.25;;;;;7.76;56.55;101124.34;5018748;28;45307;-65
2021/12/03 03:18:15;;;;;;;;;14.75;13.00;;;;;7.76;56.42;101120.81;5019226;28;45251;-65
2021/12/03 03:20:43;;;;;;;;;15.75;13.25;;;;;7.78;56.72;101119.91;5018808;28;45533;-65
2021/12/03 03:23:09;;;;;;;;;15.00;13.00;;;;;7.75;56.71;101124.38;5019301;28;45397;-64
2021/12/03 03:25:36;;;;;;;;;16.50;14.00;;;;;7.72;56.35;101111.16;5022055;28;45252;-65
2021/12/03 03:28:01;;;;;;;;;16.50;13.25;;;;;7.70;56.52;101116.47;5022438;28;45464;-64
2021/12/03 03:30:27;;;;;;;;;11.50;11.50;;;;;7.66;56.28;101120.06;5021840;28;46173;-65
2021/12/03 03:32:53;;;;;;;;;12.00;12.00;;;;;7.58;56.75;101114.88;5021969;28;46098;-65
2021/12/03 03:35:18;;;;;;;;;16.75;14.50;;;;;7.51;56.57;101115.84;5022196;28;45223;-65
2021/12/03 03:37:44;;;;;;;;;15.50;13.75;;;;;7.52;56.66;101124.72;5022037;28;45374;-65
2021/12/03 03:40:10;;;;;;;;;11.50;10.00;;;;;7.44;56.97;101118.63;5021751;28;45217;-65
2021/12/03 03:42:35;;;;;;;;;16.00;11.75;;;;;7.50;57.19;101119.41;5021838;28;46440;-65
2021/12/03 03:45:04;;;;;;;;;13.50;11.50;;;;;7.54;57.01;101126.44;5021695;28;45405;-65
2021/12/03 03:47:30;;;;;;;;;11.00;11.00;;;;;7.58;57.07;101124.59;5019563;28;45317;-65
2021/12/03 03:49:55;;;;;;;;;12.75;12.00;;;;;7.61;56.62;101121.91;5021652;28;45466;-65
2021/12/03 03:52:21;;;;;;;;;11.75;11.75;;;;;7.56;56.56;101110.47;5021640;28;45373;-65
2021/12/03 03:54:46;;;;;;;;;12.75;11.00;;;;;7.59;56.69;101126.38;5021822;28;45165;-65
2021/12/03 03:57:11;;;;;;;;;12.50;11.50;;;;;7.62;56.91;101123.69;5022025;28;45286;-65
2021/12/03 03:59:37;;;;;;;;;7.25;7.25;;;;;7.64;57.07;101124.53;5021604;28;45413;-65
2021/12/03 04:02:02;;;;;;;;;12.25;9.00;;;;;7.65;57.03;101113.03;5021809;28;45314;-65
2021/12/03 04:04:28;;;;;;;;;9.25;9.25;;;;;7.62;57.12;101118.38;5021296;28;45215;-65
2021/12/03 04:06:53;;;;;;;;;13.75;9.00;;;;;7.57;56.89;101107.81;5021987;28;45407;-65
2021/12/03 04:09:19;;;;;;;;;11.00;11.00;;;;;7.60;57.24;101115.72;5021436;28;45417;-65
2021/12/03 04:11:44;;;;;;;;;10.50;10.25;;;;;7.55;56.86;101098.97;5021394;28;45399;-65
2021/12/03 04:14:10;;;;;;;;;10.25;10.00;;;;;7.61;57.12;101104.19;5020907;28;45539;-65
2021/12/03 04:16:35;;;;;;;;;5.50;3.00;;;;;7.61;56.84;101098.00;5021894;28;45346;-65
2021/12/03 04:19:01;;;;;;;;;11.00;11.00;;;;;7.67;56.88;101105.00;5021394;28;45311;-64
2021/12/03 04:21:26;;;;;;;;;8.00;8.00;;;;;7.66;56.77;101093.50;5021490;28;46259;-65
2021/12/03 04:23:53;;;;;;;;;11.00;7.25;;;;;7.66;57.00;101084.66;5021002;28;45404;-65
2021/12/03 04:26:18;;;;;;;;;11.00;7.50;;;;;7.67;56.82;101095.25;5021691;28;45334;-65
2021/12/03 04:28:44;;;;;;;;;8.50;8.50;;;;;7.70;56.96;101099.63;5021101;28;46153;-64
2021/12/03 04:31:09;;;;;;;;;14.25;12.00;;;;;7.72;57.02;101116.47;5021452;28;45520;-65
2021/12/03 04:33:35;;;;;;;;;12.50;9.25;;;;;7.74;56.87;101118.19;5020971;28;45294;-65
2021/12/03 04:36:00;;;;;;;;;11.00;10.75;;;;;7.73;56.77;101113.75;5020592;28;45354;-65
2021/12/03 04:38:26;;;;;;;;;7.25;7.25;;;;;7.77;57.08;101118.13;5021020;28;45475;-65
2021/12/03 04:40:51;;;;;;;;;7.50;7.00;;;;;7.79;56.75;101102.16;5020979;28;45299;-65
2021/12/03 04:43:17;;;;;;;;;10.00;9.00;;;;;7.82;56.89;101093.25;5020709;28;45137;-65
2021/12/03 04:45:42;;;;;;;;;7.00;7.00;;;;;7.81;56.73;101108.34;5021156;28;45414;-65
2021/12/03 04:48:08;;;;;;;;;11.25;9.50;;;;;7.79;56.96;101099.50;5018275;28;45529;-65
2021/12/03 04:50:37;;;;;;;;;7.00;7.00;;;;;7.83;56.90;101089.72;5020931;28;45404;-64
2021/12/03 04:53:04;;;;;;;;;10.50;10.50;;;;;7.83;56.60;101081.75;5020551;28;45678;-65
2021/12/03 04:55:29;;;;;;;;;10.50;10.00;;;;;7.82;56.30;101090.59;5021128;28;45475;-65
2021/12/03 04:57:55;;;;;;;;;9.25;9.25;;;;;7.83;56.75;101092.38;5020924;28;45327;-65
2021/12/03 05:00:29;;;;;;;;;8.75;8.75;;;;;7.85;56.42;101099.44;5020307;28;46173;-65
2021/12/03 05:02:55;;;;;;;;;6.50;6.00;;;;;7.87;56.49;101112.66;5020433;28;45440;-65
2021/12/03 05:05:24;;;;;;;;;9.50;8.00;;;;;7.86;56.53;101102.97;5021038;28;45393;-65
2021/12/03 05:07:58;;;;;;;;;8.75;8.75;;;;;7.89;56.44;101097.59;5020045;28;45516;-65
2021/12/03 05:10:27;;;;;;;;;10.50;8.25;;;;;7.89;56.38;101100.25;5020529;28;45407;-65
2021/12/03 05:12:57;;;;;;;;;7.75;7.75;;;;;7.89;56.48;101087.84;5019344;28;45769;-65
2021/12/03 05:15:24;;;;;;;;;10.00;7.50;;;;;7.90;56.44;101073.66;5033033;28;45497;-65
2021/12/03 05:17:49;;;;;;;;;8.25;8.25;;;;;7.92;56.31;101065.66;5036073;28;45409;-65
2021/12/03 05:20:15;;;;;;;;;8.75;7.75;;;;;7.93;56.35;101056.75;5020465;28;46258;-65
2021/12/03 05:22:41;;;;;;;;;9.00;7.50;;;;;7.91;56.09;101051.47;5035606;28;45447;-65
2021/12/03 05:25:07;;;;;;;;;12.50;8.25;;;;;7.91;56.03;101056.78;5020139;28;45309;-65
2021/12/03 05:27:33;;;;;;;;;12.00;8.00;;;;;7.91;56.37;101061.22;5020038;28;45329;-65
2021/12/03 05:29:58;;;;;;;;;10.50;8.75;;;;;7.90;56.26;101051.50;5019442;28;45433;-65
2021/12/03 05:32:24;;;;;;;;;12.00;9.00;;;;;7.87;56.30;101049.78;5019996;28;45363;-65
2021/12/03 05:34:49;;;;;;;;;11.25;9.00;;;;;7.90;56.32;101060.38;5019957;28;45300;-65
2021/12/03 05:37:15;;;;;;;;;9.00;7.75;;;;;7.90;56.34;101055.06;5020410;28;45472;-65
2021/12/03 05:39:40;;;;;;;;;9.00;8.00;;;;;7.86;56.32;101044.47;5019663;28;46178;-65
2021/12/03 05:42:06;;;;;;;;;7.25;7.25;;;;;7.88;56.54;101048.00;5016005;28;45449;-65
2021/12/03 05:44:32;;;;;;;;;9.00;8.00;;;;;7.88;56.38;101042.66;5018384;28;45434;-65
2021/12/03 05:46:58;;;;;;;;;7.00;7.00;;;;;7.92;56.31;101053.25;5017738;28;45342;-65
2021/12/03 05:49:24;;;;;;;;;7.50;7.50;;;;;7.89;56.24;101047.09;5019943;28;45295;-65
2021/12/03 05:51:50;;;;;;;;;9.00;8.00;;;;;7.90;56.14;101051.50;5019703;28;45360;-65
2021/12/03 05:54:15;;;;;;;;;7.00;6.75;;;;;7.90;56.27;101048.84;5020103;28;45548;-65
2021/12/03 05:56:41;;;;;;;;;8.00;7.00;;;;;7.86;56.39;101036.50;5019389;28;45423;-65
2021/12/03 05:59:06;;;;;;;;;12.00;9.00;;;;;7.87;55.95;101040.91;5019468;28;46157;-65
2021/12/03 06:01:32;;;;;;;;;7.75;6.50;;;;;7.90;56.30;101039.09;5018677;28;45295;-65
2021/12/03 06:03:57;;;;;;;;;9.50;7.25;;;;;7.89;56.18;101025.84;5018750;28;45412;-65
2021/12/03 06:06:23;;;;;;;;;11.50;11.50;;;;;7.89;56.34;101012.53;5019173;28;45307;-65
2021/12/03 06:08:48;;;;;;;;;10.50;10.50;;;;;7.93;56.31;101011.56;5018964;28;45463;-65
2021/12/03 06:11:14;;;;;;;;;9.50;6.75;;;;;7.94;56.58;101003.56;5019644;28;45305;-65
2021/12/03 06:13:39;;;;;;;;;7.00;7.00;;;;;7.95;56.26;101002.69;5018205;28;45464;-64
2021/12/03 06:16:10;;;;;;;;;12.50;11.00;;;;;7.92;56.34;101008.06;5019068;28;45398;-65
2021/12/03 06:18:36;;;;;;;;;6.25;3.00;;;;;7.95;56.22;101017.72;5019671;28;46081;-65
2021/12/03 06:21:04;;;;;;;;;13.00;7.00;;;;;7.91;56.36;101005.41;5019562;28;45850;-66
2021/12/03 06:23:30;;;;;;;;;9.00;9.00;;;;;7.93;56.21;101014.22;5017920;28;45248;-66
2021/12/03 06:25:58;;;;;;;;;8.25;6.25;;;;;7.96;56.02;101016.84;5018481;28;45215;-66
2021/12/03 06:28:25;;;;;;;;;8.25;8.25;;;;;7.98;56.39;101031.88;5019233;28;45333;-66
2021/12/03 06:30:51;;;;;;;;;8.00;8.00;;;;;7.97;55.99;101035.44;5033188;28;45926;-67
2021/12/03 06:33:16;;;;;;;;;4.00;4.00;;;;;7.96;56.29;101032.78;5019243;28;45467;-66
2021/12/03 06:35:42;;;;;;;;;8.75;8.00;;;;;7.97;56.09;101029.25;5019365;28;45496;-67
2021/12/03 06:38:07;;;;;;;;;9.00;6.75;;;;;7.96;56.58;101027.47;5018090;28;46947;-67
2021/12/03 06:40:33;;;;;;;;;10.75;10.75;;;;;7.96;56.52;101028.34;5014740;28;45397;-67
2021/12/03 06:42:58;;;;;;;;;10.75;10.25;;;;;7.88;56.38;101018.75;5019639;28;45439;-70
2021/12/03 06:45:24;;;;;;;;;11.50;8.50;;;;;8.00;56.22;101025.63;5018830;28;45410;-67
2021/12/03 06:47:50;;;;;;;;;8.50;6.25;;;;;8.00;56.23;101026.50;5015124;28;46018;-66
2021/12/03 06:50:18;;;;;;;;;7.00;6.25;;;;;8.00;56.31;101031.81;5018918;28;45616;-67
2021/12/03 06:52:47;;;;;;;;;7.00;6.75;;;;;8.02;56.23;101026.47;5018807;28;45498;-66
2021/12/03 06:55:14;;;;;;;;;11.25;11.25;;;;;8.01;56.40;101025.63;5008249;28;45461;-66
2021/12/03 06:57:43;;;;;;;;;9.00;9.00;;;;;8.02;55.98;101027.38;5018483;28;46171;-66
2021/12/03 07:00:09;;;;;;;;;9.75;9.50;;;;;7.95;56.18;101020.38;5022070;28;45167;-66
2021/12/03 07:02:35;;;;;;;;;3.50;3.50;;;;;7.97;56.32;101023.94;5022155;28;45398;-66
2021/12/03 07:05:04;;;;;;;;;8.50;8.50;;;;;7.96;55.86;101019.50;5022572;28;45543;-67
2021/12/03 07:07:29;;;;;;;;;12.25;8.75;;;;;7.98;56.42;101013.28;5022175;28;46107;-67
2021/12/03 07:09:56;;;;;;;;;7.50;6.50;;;;;8.00;56.26;101022.97;5021873;28;45354;-65
2021/12/03 07:12:21;;;;;;;;;8.50;8.50;;;;;7.97;56.29;101010.63;5020506;28;45157;-67
2021/12/03 07:14:46;;;;;;;;;12.00;7.25;;;;;8.00;56.35;101018.53;5019544;28;45361;-66
2021/12/03 07:17:12;;;;;;;;;12.25;7.25;;;;;8.01;56.14;101014.97;5022492;28;46418;-66
2021/12/03 07:19:37;;;;;;;;;6.75;6.00;;;;;8.02;56.34;101007.88;5022160;28;45219;-67
2021/12/03 07:22:03;;;;;;;;;8.75;7.00;;;;;8.04;56.03;101020.25;5022360;28;45464;-67
2021/12/03 07:24:28;;;;;;;;;9.00;7.00;;;;;8.01;56.06;100999.03;5022324;28;45266;-67
2021/12/03 07:26:54;;;;;;;;;8.00;8.00;;;;;8.00;56.18;100999.06;5022186;28;46113;-67
2021/12/03 07:29:19;;;;;;;;;7.25;7.00;;;;;7.98;56.57;100989.34;5021845;28;45248;-67
2021/12/03 07:31:45;;;;;;;;;12.25;8.00;;;;;8.01;56.43;100998.16;5022470;28;45228;-67
2021/12/03 07:34:12;;;;;;;;;6.00;6.00;;;;;7.98;56.47;100993.75;5022382;28;45260;-67
2021/12/03 07:36:37;;;;;;;;;6.00;6.00;;;;;8.01;56.40;100998.16;5022339;28;47182;-67
2021/12/03 07:39:03;;;;;;;;;8.00;6.00;;;;;8.03;56.11;100996.34;5022077;28;45376;-66
2021/12/03 07:41:29;;;;;;;;;7.50;6.25;;;;;8.07;56.07;101004.25;5022050;28;45389;-67
2021/12/03 07:43:54;;;;;;;;;4.00;4.00;;;;;8.08;56.26;101007.78;5021727;28;45434;-66
2021/12/03 07:46:19;;;;;;;;;6.75;5.00;;;;;8.06;56.02;101005.13;5017721;28;46484;-67
2021/12/03 07:48:47;;;;;;;;;6.00;6.00;;;;;8.02;56.21;101000.78;5022090;28;45436;-66
2021/12/03 07:51:14;;;;;;;;;6.50;6.50;;;;;8.08;56.35;101016.63;5022046;28;45227;-67
2021/12/03 07:53:40;;;;;;;;;6.00;6.00;;;;;8.06;56.17;100998.94;5021865;28;45437;-67
2021/12/03 07:56:05;;;;;;;;;10.75;7.00;;;;;8.07;56.23;101012.22;5021743;28;45494;-66
2021/12/03 07:58:30;;;;;;;;;10.75;9.00;;;;;8.05;56.04;101005.16;5021716;28;45495;-67
2021/12/03 08:00:57;;;;;;;;;6.75;6.75;;;;;8.04;56.17;101000.78;5022041;28;45381;-67
2021/12/03 08:03:23;;;;;;;;;6.00;4.50;;;;;8.03;56.31;101006.97;5021800;28;46290;-67
2021/12/03 08:05:49;;;;;;;;;7.75;7.00;;;;;7.97;56.53;100995.56;5021746;28;46285;-67
2021/12/03 08:08:21;;;;;;;;;5.00;5.00;;;;;7.98;56.23;100999.97;5021570;28;45313;-67
2021/12/03 08:10:47;;;;;;;;;5.00;5.00;;;;;8.02;56.39;101000.78;5020421;28;45353;-67
2021/12/03 08:13:12;;;;;;;;;7.50;6.00;;;;;8.01;56.33;100990.19;5018930;28;45398;-65
2021/12/03 08:15:38;;;;;;;;;6.75;6.00;;;;;8.04;56.29;101003.44;5021278;28;45574;-67
2021/12/03 08:18:07;;;;;;;;;6.25;5.00;;;;;8.01;56.36;100999.03;5021854;28;45315;-67
2021/12/03 08:20:33;;;;;;;;;7.00;4.00;;;;;8.06;56.55;100998.94;5021543;28;45345;-66
2021/12/03 08:22:59;;;;;;;;;6.50;4.00;;;;;8.05;56.28;101002.50;5021791;28;45278;-67
2021/12/03 08:25:26;;;;;;;;;5.50;4.00;;;;;8.01;56.27;100998.16;5021168;28;47047;-67
2021/12/03 08:27:52;;;;;;;;;8.25;6.25;;;;;7.97;56.38;100992.03;5021450;28;45814;-67
2021/12/03 08:30:17;;;;;;;;;6.25;5.50;;;;;7.88;56.33;100984.19;5021204;28;45378;-67
2021/12/03 08:32:43;;;;;;;;;4.00;3.00;;;;;7.98;56.50;101007.06;5021434;28;45272;-68
2021/12/03 08:35:08;;;;;;;;;4.50;4.50;;;;;7.97;56.41;101002.66;5021363;28;45996;-67
2021/12/03 08:37:34;;;;;;;;;2.50;2.50;;;;;7.96;56.43;100999.09;5021340;28;45240;-66
2021/12/03 08:39:59;;;;;;;;;3.00;2.75;;;;;7.96;56.21;100992.91;5021261;28;45369;-66
2021/12/03 08:42:25;;;;;;;;;6.00;4.50;;;;;8.00;56.43;100994.59;5021153;28;45578;-66
2021/12/03 08:44:50;;;;;;;;;4.00;4.00;;;;;8.02;56.25;100999.91;5020605;28;45423;-66
2021/12/03 08:47:16;;;;;;;;;4.00;4.00;;;;;7.99;56.20;100992.88;5018761;28;45256;-65
2021/12/03 08:49:47;;;;;;;;;6.25;4.00;;;;;8.00;56.02;100997.25;5020812;28;45413;-66
2021/12/03 08:54:55;;;;;;;;;7.75;6.00;;;;;7.99;56.19;100992.88;5020856;28;46152;-66
2021/12/03 08:57:24;;;;;;;;;6.50;5.00;;;;;7.95;56.16;101008.00;5021019;28;45571;-65
2021/12/03 08:59:55;;;;;;;;;5.75;4.50;;;;;7.93;56.12;101011.56;5020508;28;45279;-65
2021/12/03 09:02:22;;;;;;;;;10.50;7.00;;;;;7.96;56.40;101001.75;5021067;28;45369;-66
2021/12/03 09:04:48;;;;;;;;;5.50;5.00;;;;;8.00;56.31;101004.38;5020642;28;45355;-66
2021/12/03 09:07:14;;;;;;;;;3.25;3.25;;;;;8.02;56.29;100998.13;5020882;28;45489;-66
2021/12/03 09:09:40;;;;;;;;;4.00;4.00;;;;;8.04;56.36;101001.63;5021009;28;45311;-66
2021/12/03 09:12:06;;;;;;;;;5.25;3.00;;;;;8.01;56.17;100993.72;5020601;28;45934;-65
2021/12/03 09:19:45;;;;;;;;;7.75;5.00;;;;;7.99;56.17;100992.88;5020882;28;45246;-68
2021/12/03 09:22:16;;;;;;;;;6.25;3.00;;;;;8.01;56.14;100987.53;5020041;28;45516;-70
2021/12/03 09:24:41;;;;;;;;;7.25;7.25;;;;;7.97;56.03;100976.94;5020563;28;46487;-70
2021/12/03 09:27:06;;;;;;;;;6.75;6.75;;;;;7.95;56.42;100980.53;5020142;28;45243;-70
2021/12/03 09:29:34;;;;;;;;;4.00;3.00;;;;;7.95;56.51;100975.19;5020534;28;45267;-70
2021/12/03 09:32:00;;;;;;;;;7.00;3.00;;;;;7.94;56.34;100974.34;5020316;28;45244;-70
2021/12/03 09:34:30;;;;;;;;;6.00;4.00;;;;;7.98;56.57;100978.72;5020489;28;46069;-70
2021/12/03 09:36:55;;;;;;;;;7.00;5.00;;;;;7.96;56.55;100966.34;5020425;28;45662;-70
2021/12/03 09:39:23;;;;;;;;;0.00;0.00;;;;;7.94;56.68;100960.19;5020529;28;45375;-70
2021/12/03 09:41:54;;;;;;;;;4.00;4.00;;;;;7.97;56.84;100963.66;5020301;28;45485;-70
2021/12/03 09:44:21;;;;;;;;;3.50;3.00;;;;;7.96;56.92;100964.53;5019935;28;47077;-70
2021/12/03 09:46:48;;;;;;;;;8.00;6.00;;;;;7.96;56.89;100967.19;5017686;28;45675;-70
2021/12/03 09:54:33;;;;;;;;;4.00;4.00;;;;;7.93;57.00;100950.44;5020118;28;46128;-70
2021/12/03 09:57:07;;;;;;;;;6.50;5.50;;;;;7.94;56.91;100944.22;5020209;28;45159;-70
2021/12/03 10:20:31;;;;;;;;;3.00;3.00;;;;;7.90;58.38;100934.53;5019936;28;45280;-70
2021/12/03 10:34:04;;;;;;;;;7.00;4.50;;;;;7.86;58.81;100893.84;5020918;28;45414;-71
2021/12/03 11:27:42;;;;;;;;;13.00;10.00;;;;;7.85;61.64;100800.84;5022198;28;45253;-69
2021/12/03 11:44:56;;;;;;;;;6.75;6.00;;;;;7.64;62.22;100776.47;5021497;28;45366;-69
2021/12/03 13:11:03;;;;;;;;;5.00;3.00;;;;;7.39;64.58;100637.97;5020683;28;45261;-69
2021/12/03 13:20:04;;;;;;;;;3.00;3.00;;;;;7.40;64.20;100613.16;5020694;28;45406;-70
2021/12/03 13:28:33;;;;;;;;;4.25;4.25;;;;;7.33;64.63;100571.72;5020648;28;45305;-69
2021/12/03 14:00:44;;;;;;;;;4.25;3.00;;;;;7.48;64.83;100520.91;5020155;28;45345;-69
2021/12/03 14:51:55;;;;;;;;;2.00;2.00;;;;;7.64;65.51;100447.06;5019208;28;45252;-69
2021/12/03 14:57:09;;;;;;;;;2.75;2.00;;;;;7.62;66.24;100432.94;5007000;28;45371;-69
2021/12/03 14:59:36;;;;;;;;;2.50;2.50;;;;;7.67;66.07;100425.72;5018869;28;45360;-69
2021/12/03 15:02:37;;;;;;;;;2.75;1.75;;;;;7.70;66.05;100408.81;5019403;28;45469;-69
2021/12/03 15:07:33;;;;;;;;;3.00;3.00;;;;;7.76;66.19;100409.53;5019052;28;45239;-69
2021/12/03 15:10:01;;;;;;;;;3.00;3.00;;;;;7.81;66.01;100404.09;5019010;28;46506;-69
2021/12/03 15:18:35;;;;;;;;;3.00;3.00;;;;;7.85;65.86;100404.88;5007670;28;45600;-69
2021/12/03 15:31:47;;;;;;;;;2.00;2.00;;;;;7.96;65.92;100390.41;5022242;28;45839;-69
2021/12/03 15:37:09;;;;;;;;;5.25;5.00;;;;;7.92;66.19;100386.09;5022305;28;45311;-69
2021/12/03 16:06:22;;;;;;;;;3.50;3.00;;;;;8.06;66.58;100350.28;5021772;28;45352;-69
2021/12/03 16:08:49;;;;;;;;;7.00;7.00;;;;;8.08;66.99;100336.00;5022013;28;45493;-69
2021/12/03 16:11:37;;;;;;;;;3.00;3.00;;;;;8.09;66.18;100326.28;5021596;28;45346;-69
2021/12/03 16:14:53;;;;;;;;;2.00;2.00;;;;;8.11;66.06;100319.97;5018385;28;46395;-69
2021/12/03 16:22:48;;;;;;;;;3.25;2.00;;;;;8.00;66.91;100302.59;5021555;28;45215;-69
2021/12/03 16:44:45;;;;;;;;;6.00;4.00;;;;;7.92;67.11;100241.72;5020889;28;45474;-69
2021/12/03 16:50:03;;;;;;;;;2.75;2.75;;;;;7.98;67.04;100245.06;5020864;28;45379;-69
2021/12/03 16:52:31;;;;;;;;;5.75;5.75;;;;;7.97;67.39;100245.09;5021004;28;45381;-69
2021/12/03 16:54:57;;;;;;;;;2.00;2.00;;;;;7.95;67.19;100250.47;5020846;28;45514;-69
2021/12/03 16:57:30;;;;;;;;;3.00;3.00;;;;;7.97;67.18;100234.47;5020929;28;47128;-69
2021/12/03 16:59:57;;;;;;;;;3.00;3.00;;;;;7.96;67.64;100227.41;5020520;28;45634;-69
2021/12/03 17:02:32;;;;;;;;;4.00;4.00;;;;;8.02;66.98;100223.69;5020986;28;45337;-69
2021/12/03 17:05:12;;;;;;;;;7.75;4.00;;;;;8.08;67.22;100229.69;5020809;28;45150;-69
2021/12/03 17:50:24;;;;;;;;;4.50;4.50;;;;;8.20;67.40;100177.06;5019924;28;45433;-68
2021/12/03 18:01:47;;;;;;;;;7.25;6.50;;;;;8.14;68.00;100154.22;5017706;28;45603;-68
2021/12/03 18:04:23;;;;;;;;;6.00;3.50;;;;;8.14;68.00;100143.56;5019779;28;46964;-67
2021/12/03 18:07:00;;;;;;;;;8.25;7.00;;;;;8.06;67.75;100117.22;5020136;28;45336;-68
2021/12/03 18:58:25;;;;;;;;;7.50;7.50;;;;;8.47;68.62;100027.25;5012207;28;45312;-69
2021/12/03 19:00:53;;;;;;;;;8.00;7.00;;;;;8.52;68.59;100027.09;5023118;28;45240;-68
2021/12/03 19:05:57;;;;;;;;;8.75;7.00;;;;;8.60;68.45;100022.34;5022776;28;46002;-68
2021/12/03 19:13:41;;;;;;;;;4.00;4.00;;;;;8.67;68.36;100020.34;5019652;28;45414;-69
2021/12/03 19:16:11;;;;;;;;;10.25;9.00;;;;;8.75;68.62;100012.94;5022519;28;45946;-69
2021/12/03 19:18:37;;;;;;;;;9.25;9.25;;;;;8.76;68.50;100017.38;5022696;28;45247;-68
2021/12/03 19:21:08;;;;;;;;;7.75;7.75;;;;;8.76;68.46;100006.72;5022822;28;45291;-68